Pagrindinis puslapis
METAR-TAF:

METAR-TAF

Oro uostai :

Plainview, Teksasas, Jungtinės Amerikos Valstijos

platuma: 34-10-05N, ilguma: 101-43-02W, Aukštis: 1028 m

Dabartinis oras

Ataskaita buvo paskelbta 19 minutes, ne 09:55 UTC
Vėjas 9 kt iš Šiaurės Vakarų
Temperatūra 7°C
Drėgmė 39%
Slėgis 1016 hPa
Matomumas: 16.1 km
Giedras dangus

METAR: KPVW 280955Z AUTO 32009KT 10SM CLR 07/M06 A3001 RMK AO2 T00651060

Laikas: 05:14 (10:14 UTC)

Prognozė

Ataskaita buvo paskelbta 4 valandos ir 38 minutes, ne 05:36 UTC
Prognozė galioja nuo 28 metu 06 UTC su 29 metu 06 UTC
Vėjas 11 kt iš Šiaurės Vakarų
Matomumas: 10 km
Giedras dangus
Nuo 28 metu 1400 UTC
Vėjas 20 kt iš Šiaurės/Šiaurės Vakarų
Matomumas: 10 km
Giedras dangus
Nuo 28 metu 1600 UTC
Vėjas 23 kt iš Šiaurės/Šiaurės Vakarų su gūsio iki 33 kt
Matomumas: 10 km
Giedras dangus
Nuo 29 metu 0000 UTC
Vėjas 15 kt iš Šiaurės/Šiaurės Vakarų
Matomumas: 10 km
Giedras dangus

TAF: KPVW 280536Z 2806/2906 32011KT P6SM SKC WS010/35045KT FM281400 34020KT P6SM SKC FM281600 34023G33KT P6SM SKC FM290000 34015KT P6SM SKC

Orai ataskaitas ir orų prognozės (METAR, TAF).

turimą stotys yra geltonos ir raudonos taškus žemėlapyje.

Perkelti pele per norėdami pamatyti stoties vardą.

Tada spustelėkite, norėdami matyti oro stebėjimo ir prognozės.

Norėdami pakeisti žemėlapį: spustelėkite ant žalios mygtukų su juodo kryžiaus žemyn,; žalią mygtuką su brūkšneliu, jei norite nutolinti; arba žalių rodyklių gretimoms žemėlapius.


METAR-TAF: